Islandia, New York
Current Conditions -  °F | °C
As of 11:56 AM on Saturday 25 Oct 2014 (Local Time) from KISP Reporting Station
Few Clouds Few Clouds  
Wind Chill: 61°   Ceiling: Unl
Heat Index: 61°   Visibility: 10mi
Dew Point: 40°   Wind: 12mph
Humidity: 46%   Direction: 290°WNW
Pressure: 29.79"   Gusts: NA
Location:  40.8°N, 73.17°W
Report Text: KISP 251556Z 29010KT 10SM FEW250 16/04 A2979 RMK AO2 SLP086 T01610044
Loading
Personal Weather Stations






























Interactive Weather Map
Tropical Storm Tracking
New forecast layout! Learn more

10-Day Weather Forecast

Advertisements
Track Severe Weather on mobile